createdAt,value
2022-09-06T00:03:37.471Z,66.14
2022-09-06T00:04:37.480Z,65.85
2022-09-06T00:05:37.436Z,65.85
2022-09-06T00:06:37.436Z,65.56
2022-09-06T00:07:37.450Z,65.85
2022-09-06T00:08:37.467Z,66.01
2022-09-06T00:09:37.476Z,65.91
2022-09-06T00:10:37.481Z,66.10
2022-09-06T00:11:37.502Z,65.81
2022-09-06T00:12:37.507Z,65.81
2022-09-06T00:13:37.517Z,66.01
2022-09-06T00:14:37.534Z,65.91
2022-09-06T00:15:37.592Z,66.10
2022-09-06T00:16:37.557Z,65.81
2022-09-06T00:17:37.566Z,65.91
2022-09-06T00:18:37.576Z,66.10
2022-09-06T00:19:37.582Z,65.91
2022-09-06T00:20:37.595Z,65.72
2022-09-06T00:21:37.605Z,66.10
2022-09-06T00:22:37.634Z,65.81
2022-09-06T00:23:37.634Z,66.10
2022-09-06T00:24:37.639Z,66.01
2022-09-06T00:25:37.657Z,66.01
2022-09-06T00:26:37.660Z,65.81
2022-09-06T00:27:37.680Z,65.91
2022-09-06T00:28:37.688Z,65.91
2022-09-06T00:29:37.703Z,66.01
2022-09-06T00:30:37.704Z,66.01
2022-09-06T00:31:37.724Z,66.01
2022-09-06T00:32:37.725Z,66.10
2022-09-06T00:33:37.746Z,65.81
2022-09-06T00:34:37.749Z,65.72
2022-09-06T00:35:37.760Z,65.91
2022-09-06T00:36:37.771Z,65.91
2022-09-06T00:37:37.782Z,65.91
2022-09-06T00:38:37.805Z,66.30
2022-09-06T00:39:37.870Z,65.81
2022-09-06T00:40:37.813Z,66.10
2022-09-06T00:41:37.833Z,65.81
2022-09-06T00:42:37.843Z,65.81
2022-09-06T00:43:37.846Z,65.81
2022-09-06T00:44:37.865Z,65.91
2022-09-06T00:45:37.875Z,65.72
2022-09-06T00:46:37.956Z,65.91
2022-09-06T00:47:37.896Z,65.81
2022-09-06T00:48:37.902Z,65.72
2022-09-06T00:49:37.918Z,65.53
2022-09-06T00:50:37.932Z,66.20
2022-09-06T00:51:37.940Z,65.91
2022-09-06T00:52:37.945Z,65.91
2022-09-06T00:53:37.956Z,65.43
2022-09-06T00:54:37.973Z,65.72
2022-09-06T00:55:37.984Z,65.53
2022-09-06T00:56:37.989Z,65.24
2022-09-06T00:57:38.002Z,65.53
2022-09-06T00:58:38.010Z,65.63
2022-09-06T00:59:38.028Z,65.72
2022-09-06T01:00:38.040Z,65.72
2022-09-06T01:01:38.189Z,65.81
2022-09-06T01:02:38.243Z,65.14
2022-09-06T01:03:38.065Z,65.24
2022-09-06T01:04:38.083Z,65.33
2022-09-06T01:05:38.095Z,65.43
2022-09-06T01:06:38.103Z,65.43
2022-09-06T01:07:38.116Z,64.86
2022-09-06T01:08:38.126Z,65.43
2022-09-06T01:09:38.143Z,64.95
2022-09-06T01:10:38.140Z,65.33
2022-09-06T01:11:38.160Z,64.86
2022-09-06T01:12:38.172Z,65.05
2022-09-06T01:13:38.174Z,65.43
2022-09-06T01:14:38.184Z,65.40
2022-09-06T01:15:38.227Z,65.33
2022-09-06T01:16:38.213Z,64.86
2022-09-06T01:17:38.217Z,64.95
2022-09-06T01:18:38.229Z,65.33
2022-09-06T01:19:38.238Z,65.43
2022-09-06T01:20:38.250Z,64.86
2022-09-06T01:21:38.268Z,65.24
2022-09-06T01:23:25.834Z,65.05
2022-09-06T01:24:25.842Z,64.76
2022-09-06T01:25:25.849Z,65.05
2022-09-06T01:26:25.857Z,65.01
2022-09-06T01:27:25.884Z,65.11
2022-09-06T01:28:25.879Z,65.01
2022-09-06T01:29:25.892Z,64.92
2022-09-06T01:30:25.906Z,65.01
2022-09-06T01:31:25.986Z,64.82
2022-09-06T01:32:25.923Z,65.11
2022-09-06T01:33:25.940Z,65.11
2022-09-06T01:34:25.945Z,64.82
2022-09-06T01:35:25.955Z,64.82
2022-09-06T01:36:25.973Z,64.56
2022-09-06T01:37:25.975Z,64.63
2022-09-06T01:38:26.187Z,64.53
2022-09-06T01:39:26.047Z,64.34
2022-09-06T01:40:26.016Z,64.34
2022-09-06T01:41:26.020Z,64.53
2022-09-06T01:42:26.044Z,64.25
2022-09-06T01:43:26.042Z,64.63
2022-09-06T01:44:26.058Z,64.43
2022-09-06T01:45:26.069Z,64.63
2022-09-06T01:46:26.107Z,64.34
2022-09-06T01:47:26.091Z,64.43
2022-09-06T01:48:26.157Z,64.82
2022-09-06T01:49:26.111Z,64.43
2022-09-06T01:50:26.124Z,64.43
2022-09-06T01:55:35.311Z,65.01
2022-09-06T01:56:35.312Z,64.63
2022-09-06T01:57:35.331Z,64.82
2022-09-06T01:58:35.339Z,64.73
2022-09-06T01:59:35.344Z,64.73
2022-09-06T02:00:35.354Z,64.63
2022-09-06T02:01:35.463Z,64.53
2022-09-06T02:02:35.469Z,64.34
2022-09-06T02:03:35.389Z,64.53
2022-09-06T02:04:35.403Z,64.53
2022-09-06T02:05:35.415Z,64.53
2022-09-06T02:06:35.423Z,64.43
2022-09-06T02:07:35.428Z,64.43
2022-09-06T02:11:01.308Z,64.43
2022-09-06T02:12:01.317Z,64.82
2022-09-06T02:13:01.329Z,64.82
2022-09-06T02:14:01.338Z,64.53
2022-09-06T02:15:01.342Z,64.43
2022-09-06T02:16:01.349Z,64.53
2022-09-06T02:17:01.426Z,64.82
2022-09-06T02:18:01.378Z,64.43
2022-09-06T02:19:01.391Z,64.60
2022-09-06T02:20:01.391Z,64.15
2022-09-06T02:21:01.413Z,64.15
2022-09-06T02:22:01.417Z,64.53
2022-09-06T02:23:01.433Z,64.69
2022-09-06T02:24:01.442Z,64.40
2022-09-06T02:25:01.446Z,64.50
2022-09-06T02:26:01.456Z,64.69
2022-09-06T02:27:01.465Z,64.60
2022-09-06T02:28:01.484Z,64.79
2022-09-06T02:29:01.495Z,64.50
2022-09-06T02:30:01.505Z,64.69
2022-09-06T02:31:01.569Z,64.79
2022-09-06T02:32:01.519Z,64.98
2022-09-06T02:33:01.539Z,64.60
2022-09-06T02:34:01.548Z,64.79
2022-09-06T02:39:10.725Z,64.79
2022-09-06T02:40:10.786Z,64.22
2022-09-06T02:41:10.751Z,64.40
2022-09-06T02:42:10.763Z,64.50
2022-09-06T02:43:10.764Z,64.50
2022-09-06T02:44:10.781Z,64.56
2022-09-06T02:45:10.786Z,64.50
2022-09-06T02:46:10.816Z,65.08
2022-09-06T02:47:10.808Z,64.56
2022-09-06T02:48:10.814Z,64.76
2022-09-06T02:49:10.834Z,64.76
2022-09-06T02:50:10.841Z,64.95
2022-09-06T02:51:10.854Z,64.95
2022-09-06T02:52:10.855Z,64.95
2022-09-06T02:53:10.867Z,65.14
2022-09-06T02:54:10.876Z,64.95
2022-09-06T02:55:10.895Z,64.85
2022-09-06T02:58:36.755Z,64.85
2022-09-06T02:59:36.774Z,64.66
2022-09-06T03:00:36.777Z,64.76
2022-09-06T03:01:36.857Z,64.85
2022-09-06T03:02:36.846Z,65.14
2022-09-06T03:03:36.812Z,65.14
2022-09-06T03:04:36.817Z,64.95
2022-09-06T03:05:36.825Z,65.33
2022-09-06T03:06:36.836Z,64.66
2022-09-06T03:07:36.853Z,64.76
2022-09-06T03:08:36.869Z,65.05
2022-09-06T03:09:36.865Z,64.95
2022-09-06T03:10:36.876Z,65.14
2022-09-06T03:11:36.893Z,65.23
2022-09-06T03:12:36.896Z,65.05
2022-09-06T03:13:36.911Z,65.05
2022-09-06T03:14:36.917Z,65.23
2022-09-06T03:15:36.926Z,65.05
2022-09-06T03:16:37.045Z,65.14
2022-09-06T03:17:36.954Z,65.33
2022-09-06T03:18:36.962Z,65.23
2022-09-06T03:19:36.972Z,65.30
2022-09-06T03:20:37.395Z,65.23
2022-09-06T03:21:36.993Z,65.14
2022-09-06T03:22:37.003Z,65.14
2022-09-06T03:23:37.014Z,65.14
2022-09-06T03:24:37.015Z,65.14
2022-09-06T03:25:37.032Z,65.23
2022-09-06T03:26:37.042Z,65.43
2022-09-06T03:27:37.046Z,65.33
2022-09-06T03:28:37.064Z,65.33
2022-09-06T03:29:37.067Z,65.23
2022-09-06T03:30:37.166Z,64.85
2022-09-06T03:31:37.086Z,64.85
2022-09-06T03:32:37.102Z,64.85
2022-09-06T03:33:37.112Z,65.33
2022-09-06T03:35:19.667Z,65.23
2022-09-06T03:36:19.677Z,65.40
2022-09-06T03:37:19.689Z,64.92
2022-09-06T03:38:19.690Z,64.95
2022-09-06T03:39:19.709Z,65.01
2022-09-06T03:40:19.710Z,65.01
2022-09-06T03:41:19.721Z,65.30
2022-09-06T03:42:19.739Z,65.40
2022-09-06T03:43:19.751Z,65.20
2022-09-06T03:44:19.757Z,65.30
2022-09-06T03:45:19.762Z,65.30
2022-09-06T03:46:19.801Z,65.30
2022-09-06T03:47:19.902Z,65.53
2022-09-06T03:48:19.789Z,65.14
2022-09-06T03:49:19.802Z,65.20
2022-09-06T03:50:19.809Z,65.69
2022-09-06T03:51:19.820Z,65.30
2022-09-06T03:52:19.838Z,65.49
2022-09-06T03:53:19.843Z,65.40
2022-09-06T03:54:19.850Z,65.30
2022-09-06T03:55:19.859Z,65.59
2022-09-06T03:57:12.444Z,65.78
2022-09-06T03:58:12.453Z,65.30
2022-09-06T03:59:12.463Z,65.49
2022-09-06T04:00:12.473Z,65.01
2022-09-06T04:01:12.570Z,65.49
2022-09-06T04:02:12.589Z,65.11
2022-09-06T04:03:12.495Z,65.46
2022-09-06T04:04:12.505Z,65.30
2022-09-06T04:05:12.522Z,65.49
2022-09-06T04:06:12.530Z,65.30
2022-09-06T04:07:15.966Z,65.49
2022-09-06T04:08:12.544Z,65.49
2022-09-06T04:09:12.555Z,64.92
2022-09-06T04:10:12.573Z,65.11
2022-09-06T04:11:12.574Z,65.30
2022-09-06T04:12:12.592Z,65.17
2022-09-06T04:13:12.600Z,65.20
2022-09-06T04:14:12.604Z,65.27
2022-09-06T04:15:12.621Z,65.08
2022-09-06T04:16:12.684Z,64.92
2022-09-06T04:17:12.640Z,64.69
2022-09-06T04:18:12.642Z,64.69
2022-09-06T04:19:12.661Z,64.50
2022-09-06T04:20:12.660Z,64.79
2022-09-06T04:21:12.679Z,65.08
2022-09-06T04:22:12.682Z,64.98
2022-09-06T04:23:12.692Z,64.63
2022-09-06T04:24:12.701Z,64.82
2022-09-06T04:25:12.718Z,64.25
2022-09-06T04:26:12.728Z,64.22
2022-09-06T04:27:12.739Z,64.12
2022-09-06T04:28:12.748Z,64.12
2022-09-06T04:30:10.324Z,64.59
2022-09-06T04:31:10.335Z,64.69
2022-09-06T04:32:10.386Z,64.25
2022-09-06T04:33:10.361Z,64.43
2022-09-06T16:21:25.587Z,57.97
2022-09-06T16:22:25.598Z,58.33
2022-09-06T16:23:25.608Z,58.62
2022-09-06T16:24:25.627Z,58.23
2022-09-06T16:25:25.636Z,58.55
2022-09-06T16:26:25.650Z,58.84
2022-09-06T16:27:25.675Z,58.42
2022-09-06T16:28:25.687Z,58.62
2022-09-06T16:29:25.694Z,58.72
2022-09-06T16:30:25.719Z,58.72
2022-09-06T16:31:25.730Z,58.72
2022-09-06T16:32:25.739Z,58.81
2022-09-06T16:33:25.754Z,59.00
2022-09-06T16:34:25.773Z,59.00
2022-09-06T16:35:25.790Z,59.00
2022-09-06T16:36:25.800Z,59.00
2022-09-06T16:37:25.821Z,59.10
2022-09-06T16:38:25.829Z,58.91
2022-09-06T16:39:25.920Z,59.20
2022-09-06T16:40:25.859Z,59.66
2022-09-06T16:41:25.874Z,59.56
2022-09-06T16:42:25.888Z,59.97
2022-09-06T16:43:25.904Z,59.78
2022-09-06T16:44:25.921Z,59.84
2022-09-06T16:45:25.936Z,59.36
2022-09-06T16:46:26.058Z,59.94
2022-09-06T16:47:25.964Z,59.84
2022-09-06T16:48:25.977Z,59.84
2022-09-06T16:49:25.994Z,59.94
2022-09-06T16:50:26.008Z,59.94
2022-09-06T16:51:26.021Z,60.24
2022-09-06T16:52:26.038Z,60.04
2022-09-06T16:53:26.061Z,60.82
2022-09-06T16:54:26.072Z,60.33
2022-09-06T16:55:26.083Z,60.72
2022-09-06T16:56:26.096Z,60.72
2022-09-06T16:57:26.111Z,60.52
2022-09-06T16:58:26.145Z,60.91
2022-09-06T16:59:26.153Z,61.11
2022-09-06T17:00:26.155Z,60.91
2022-09-06T17:01:26.317Z,60.98
2022-09-06T17:02:26.239Z,60.98
2022-09-06T17:03:26.207Z,61.08
2022-09-06T17:04:26.213Z,61.18
2022-09-06T17:05:26.236Z,61.27
2022-09-06T17:06:26.242Z,61.27
2022-09-06T17:07:26.265Z,61.66
2022-09-06T17:08:26.341Z,61.36
2022-09-06T17:09:26.294Z,61.36
2022-09-06T17:10:26.306Z,61.76
2022-09-06T17:11:26.317Z,61.76
2022-09-06T17:12:26.335Z,61.46
2022-09-06T17:13:26.352Z,61.66
2022-09-06T17:14:26.366Z,61.66
2022-09-06T17:15:26.372Z,61.76
2022-09-06T17:16:26.443Z,62.11
2022-09-06T17:17:26.402Z,62.01
2022-09-06T17:18:26.482Z,61.92
2022-09-06T17:27:41.708Z,62.50
2022-09-06T17:28:41.717Z,62.59
2022-09-06T17:29:41.737Z,62.50
2022-09-06T17:30:41.911Z,62.88
2022-09-06T17:31:41.765Z,63.08
2022-09-06T17:32:41.781Z,63.08
2022-09-06T17:33:41.799Z,63.08
2022-09-06T17:34:41.798Z,63.08
2022-09-06T17:35:41.813Z,63.18
2022-09-06T17:36:41.826Z,63.14
2022-09-06T18:15:29.225Z,65.05
2022-09-06T18:16:29.318Z,65.01
2022-09-06T18:17:29.234Z,64.72
2022-09-06T18:18:29.397Z,64.63
2022-09-06T18:19:29.251Z,65.20
2022-09-06T18:20:29.263Z,64.63
2022-09-06T18:21:29.276Z,64.63
2022-09-06T18:22:29.290Z,64.63
2022-09-06T18:23:29.303Z,64.53
2022-09-06T18:24:29.314Z,64.92
2022-09-06T18:25:29.328Z,65.30
2022-09-06T18:26:29.338Z,65.30
2022-09-06T18:27:29.350Z,65.11
2022-09-06T18:28:29.412Z,65.20
2022-09-06T18:29:29.376Z,65.11
2022-09-06T18:30:29.396Z,65.20
2022-09-06T18:31:29.429Z,65.30
2022-09-06T18:32:29.413Z,65.69
2022-09-06T18:33:29.436Z,65.59
2022-09-06T18:34:29.446Z,65.50
2022-09-06T18:35:29.454Z,65.69
2022-09-06T18:36:32.204Z,65.30
2022-09-06T18:37:29.477Z,65.27
2022-09-06T18:38:29.587Z,65.85
2022-09-06T18:39:29.576Z,65.88
2022-09-06T18:40:29.522Z,65.69
2022-09-06T18:41:29.532Z,65.66
2022-09-06T18:42:29.542Z,65.75
2022-09-06T18:43:29.720Z,65.88
2022-09-06T18:44:31.886Z,66.08
2022-09-06T18:45:29.632Z,66.36
2022-09-06T18:46:29.599Z,66.33
2022-09-06T18:47:29.615Z,66.05
2022-09-06T18:48:29.682Z,66.14
2022-09-06T18:49:29.632Z,66.05
2022-09-06T18:50:29.652Z,65.95
2022-09-06T18:51:29.666Z,66.05
2022-09-06T18:52:29.669Z,66.43
2022-09-06T18:53:29.801Z,66.63
2022-09-06T18:54:29.696Z,66.53
2022-09-06T18:55:29.716Z,66.63
2022-09-06T18:56:29.720Z,67.01
2022-09-06T18:57:29.742Z,66.82
2022-09-06T18:58:29.862Z,66.53
2022-09-06T18:59:29.765Z,66.53
2022-09-06T19:00:29.778Z,66.33
2022-09-06T19:01:29.931Z,66.33
2022-09-06T19:02:29.908Z,66.63
2022-09-06T19:03:29.817Z,67.20
2022-09-06T19:04:29.829Z,66.82
2022-09-06T19:05:29.839Z,67.11
2022-09-06T19:06:29.854Z,67.20
2022-09-06T19:07:29.971Z,67.11
2022-09-06T19:08:29.981Z,67.01
2022-09-06T19:09:29.897Z,67.20
2022-09-06T19:10:29.898Z,67.11
2022-09-06T19:11:29.911Z,66.97
2022-09-06T19:12:29.931Z,67.46
2022-09-06T19:13:29.939Z,67.55
2022-09-06T19:14:29.958Z,67.36
2022-09-06T19:15:29.962Z,67.55
2022-09-06T19:16:30.098Z,67.36
2022-09-06T19:17:29.988Z,67.27
2022-09-06T19:18:30.167Z,67.27
2022-09-06T19:19:30.012Z,67.27
2022-09-06T19:20:30.034Z,67.27
2022-09-06T19:21:30.046Z,67.55
2022-09-06T19:22:30.056Z,67.75
2022-09-06T19:23:30.069Z,67.75
2022-09-06T19:24:30.080Z,67.75
2022-09-06T19:25:30.095Z,68.04
2022-09-06T19:26:30.100Z,67.94
2022-09-06T19:27:30.119Z,67.85
2022-09-06T19:28:30.304Z,67.85
2022-09-06T19:29:30.144Z,68.13
2022-09-06T19:30:30.159Z,68.33
2022-09-06T19:31:30.280Z,68.39
2022-09-06T19:32:30.184Z,68.49
2022-09-06T19:33:34.227Z,68.62
2022-09-06T19:34:30.211Z,68.49
2022-09-06T19:35:30.217Z,68.59
2022-09-06T19:36:30.223Z,68.59
2022-09-06T19:37:30.852Z,68.77
2022-09-06T19:38:42.060Z,68.19
2022-09-06T19:41:10.389Z,68.87
2022-09-06T20:42:24.574Z,71.60
2022-09-06T20:43:24.576Z,72.47
2022-09-06T20:44:27.420Z,71.79
2022-09-06T20:46:33.135Z,72.37
2022-09-06T20:48:14.818Z,72.37
2022-09-06T21:00:26.840Z,71.41
2022-09-06T21:01:30.226Z,71.41
2022-09-06T21:02:26.916Z,71.37
2022-09-06T21:03:26.866Z,71.47
2022-09-06T21:04:26.877Z,71.47
2022-09-06T21:05:26.891Z,71.37
2022-09-06T21:06:27.911Z,71.56
2022-09-06T21:07:28.132Z,71.66
2022-09-06T21:08:26.999Z,71.76
2022-09-06T21:09:26.935Z,71.56
2022-09-06T21:10:26.948Z,71.56
2022-09-06T21:12:34.562Z,71.37
2022-09-06T21:13:35.377Z,71.47
2022-09-06T21:14:34.578Z,71.66
2022-09-06T21:15:34.599Z,71.66
2022-09-06T21:16:34.689Z,71.56
2022-09-06T21:17:34.615Z,71.85
2022-09-06T21:18:34.634Z,71.66
2022-09-06T21:19:34.644Z,71.76
2022-09-06T21:20:34.647Z,71.66
2022-09-06T21:21:34.667Z,71.56
2022-09-06T21:22:34.677Z,71.56
2022-09-06T21:23:34.688Z,71.47
2022-09-06T21:24:34.695Z,71.76
2022-09-06T21:25:34.704Z,71.53
2022-09-06T21:26:34.724Z,71.53
2022-09-06T21:27:34.734Z,71.72
2022-09-06T21:28:34.740Z,72.01
2022-09-06T21:29:34.750Z,72.11
2022-09-06T21:30:34.772Z,72.11
2022-09-06T21:31:34.886Z,71.72
2022-09-06T21:32:34.794Z,72.11
2022-09-06T21:33:34.802Z,72.11
2022-09-06T21:34:34.808Z,72.39
2022-09-06T21:35:34.826Z,72.30
2022-09-06T21:36:34.828Z,72.59
2022-09-06T21:37:34.849Z,72.49
2022-09-06T21:38:34.851Z,72.49
2022-09-06T21:39:34.897Z,72.39
2022-09-06T21:41:37.470Z,72.94
2022-09-06T21:42:37.473Z,72.65
2022-09-06T21:43:37.483Z,72.65
2022-09-06T21:44:37.505Z,73.13
2022-09-06T21:45:37.515Z,72.84
2022-09-06T21:46:37.606Z,72.94
2022-09-06T21:47:37.535Z,73.61
2022-09-06T21:48:37.549Z,73.42
2022-09-06T21:49:37.552Z,73.32
2022-09-06T21:50:37.570Z,73.90
2022-09-06T21:51:37.577Z,73.51
2022-09-06T21:52:37.591Z,73.61
2022-09-06T21:53:37.595Z,73.51
2022-09-06T21:54:37.605Z,73.90
2022-09-06T21:55:37.617Z,73.90
2022-09-06T21:56:37.633Z,73.80
2022-09-06T21:57:37.640Z,73.80
2022-09-06T21:58:37.656Z,74.48
2022-09-06T21:59:37.670Z,74.09
2022-09-06T22:00:37.765Z,74.38
2022-09-06T22:01:37.692Z,74.29
2022-09-06T22:02:37.763Z,74.38
2022-09-06T22:03:37.715Z,74.86
2022-09-06T22:04:37.716Z,74.48
2022-09-06T22:05:37.735Z,74.76
2022-09-06T22:06:37.767Z,75.15
2022-09-06T22:07:37.751Z,74.96
2022-09-06T22:08:37.767Z,74.76
2022-09-06T22:09:37.771Z,74.96
2022-09-06T22:10:37.782Z,75.05
2022-09-06T22:11:37.796Z,74.96
2022-09-06T22:12:37.807Z,74.76
2022-09-06T22:13:37.825Z,75.34
2022-09-06T22:14:37.826Z,75.34
2022-09-06T22:15:37.846Z,75.05
2022-09-06T22:16:37.916Z,75.05
2022-09-06T22:17:37.867Z,75.05
2022-09-06T22:18:37.877Z,75.34
2022-09-06T22:19:37.891Z,75.44
2022-09-06T22:20:37.922Z,75.15
2022-09-06T22:21:37.911Z,75.15
2022-09-06T22:22:37.921Z,75.24
2022-09-06T22:23:37.929Z,75.24
2022-09-06T22:24:37.936Z,75.98
2022-09-06T22:25:37.956Z,75.73
2022-09-06T22:26:37.965Z,75.63
2022-09-06T22:27:37.972Z,75.92
2022-09-06T22:28:37.980Z,75.88
2022-09-06T22:29:37.992Z,75.59
2022-09-06T22:30:38.002Z,75.98
2022-09-06T22:31:38.101Z,75.88
2022-09-06T22:32:38.032Z,76.17
2022-09-06T22:33:38.045Z,76.17
2022-09-06T22:34:38.046Z,76.26
2022-09-06T22:35:38.065Z,75.88
2022-09-06T22:36:38.069Z,76.07
2022-09-06T22:37:38.086Z,75.98
2022-09-06T22:38:38.089Z,76.36
2022-09-06T22:39:38.146Z,76.36
2022-09-06T22:40:38.111Z,76.36
2022-09-06T22:41:38.132Z,76.26
2022-09-06T22:42:38.132Z,76.84
2022-09-06T22:43:38.146Z,76.56
2022-09-06T22:44:38.157Z,76.65
2022-09-06T22:45:38.176Z,76.75
2022-09-06T22:46:38.358Z,76.94
2022-09-06T22:47:38.194Z,76.75
2022-09-06T22:48:38.204Z,76.56
2022-09-06T22:49:38.215Z,77.04
2022-09-06T22:50:38.220Z,77.13
2022-09-06T22:51:38.236Z,77.33
2022-09-06T22:52:38.249Z,77.61
2022-09-06T22:53:38.250Z,77.33
2022-09-06T22:54:38.269Z,77.58
2022-09-06T22:55:38.272Z,77.90
2022-09-06T22:56:38.285Z,78.00
2022-09-06T22:57:38.299Z,78.09
2022-09-06T22:58:38.305Z,78.38
2022-09-06T22:59:38.321Z,78.28
2022-09-06T23:00:38.356Z,78.58
2022-09-06T23:01:38.335Z,78.38
2022-09-06T23:02:38.355Z,77.90
2022-09-06T23:03:38.485Z,78.38
2022-09-06T23:04:38.412Z,78.77
2022-09-06T23:05:38.386Z,78.77
2022-09-06T23:06:38.397Z,78.83
2022-09-06T23:07:38.402Z,78.77
2022-09-06T23:08:38.412Z,78.83
2022-09-06T23:09:38.430Z,79.02
2022-09-06T23:10:38.436Z,79.11
2022-09-06T23:11:38.447Z,79.40
2022-09-06T23:12:38.462Z,79.21
2022-09-06T23:13:38.465Z,79.11
2022-09-06T23:14:38.482Z,79.50
2022-09-06T23:15:38.499Z,79.50
2022-09-06T23:16:38.498Z,79.69
2022-09-06T23:17:38.515Z,79.88
2022-09-06T23:18:38.527Z,79.79
2022-09-06T23:19:38.538Z,79.69
2022-09-06T23:20:38.539Z,79.60
2022-09-06T23:21:38.557Z,79.60
2022-09-06T23:22:38.567Z,80.36
2022-09-06T23:23:38.577Z,80.36
2022-09-06T23:24:38.589Z,80.07
2022-09-06T23:25:38.591Z,80.07
2022-09-06T23:26:38.610Z,79.88
2022-09-06T23:27:38.621Z,80.17
2022-09-06T23:28:38.631Z,80.75
2022-09-06T23:29:38.633Z,80.65
2022-09-06T23:30:38.652Z,81.04
2022-09-06T23:31:38.722Z,81.13
2022-09-06T23:32:38.674Z,81.04
2022-09-06T23:33:38.683Z,81.32
2022-09-06T23:34:38.696Z,81.52
2022-09-06T23:35:38.697Z,81.71
2022-09-06T23:36:38.709Z,81.71
2022-09-06T23:37:38.725Z,81.42
2022-09-06T23:38:38.730Z,81.52
2022-09-06T23:39:38.783Z,81.71
2022-09-06T23:40:38.758Z,81.46
2022-09-06T23:41:38.770Z,81.75
2022-09-06T23:42:38.776Z,81.56
2022-09-06T23:43:38.785Z,81.32
2022-09-06T23:44:38.799Z,81.32
2022-09-06T23:45:38.803Z,81.46
2022-09-06T23:46:38.854Z,81.65
2022-09-06T23:47:38.833Z,81.46
2022-09-06T23:48:38.834Z,81.61
2022-09-06T23:49:38.847Z,81.46
2022-09-06T23:50:38.854Z,81.61
2022-09-06T23:51:38.868Z,81.27
2022-09-06T23:52:38.884Z,81.46
2022-09-06T23:53:38.895Z,81.37
2022-09-06T23:54:38.904Z,81.27
2022-09-06T23:55:38.916Z,81.23
2022-09-06T23:56:38.926Z,81.81
2022-09-06T23:57:38.928Z,81.13
2022-09-06T23:58:38.940Z,81.32
2022-09-06T23:59:38.957Z,82.09
